Riverton, CT (06065)

6:44 AM EDT on August 20, 2014 (GMT -0400)
NEWDAYHD.tv Weather | Change Station
CLOSE
Current Station
Personal Weather Station
Location: Winsted, CT
Elevation: 679 ft
Nearby Weather Stations

Elev 679 ft 41.95 °N, 73.04 °W | Updated 24 seconds ago

Mostly Cloudy
Mostly Cloudy
53.7 °F
Feels Like 53.7 °F
N
0.0
Wind Variable Wind from SSW
Gusts 0.0 mph

Today
High -- | Low -- °F
--% Chance of Precip.
Yesterday
High -- | Low -- °F
Precip. -- in
6:05 AM 7:44 PM
Waning Crescent, 22% visible
Pressure 29.98 in
Visibility 10.0 miles
Clouds Few 22000 ft
Mostly Cloudy 25000 ft
Dew Point 53 °F
Humidity 98%
Rainfall 0.00 in
Snow Depth Not available.
UV 0 out of 12
Pollen 9.50 out of 12
Ozone Good
PM2.5 Good
Flu Activity Not available.
METAR KBDL 200951Z 00000KT 10SM FEW220 BKN250 14/12 A2998 RMK AO2 SLP151 T01440122

More Conditions Fewer Conditions

Pressure 29.98 in
Visibility 10.0 miles
Clouds Few 22000 ft
Mostly Cloudy 25000 ft
Dew Point 53 °F
Humidity 98%
Rainfall 0.00 in
Snow Depth Not available.
UV 0 out of 12
Pollen 9.50 out of 12
Ozone Good
PM2.5 Good
Flu Activity Not available.
METAR KBDL 200951Z 00000KT 10SM FEW220 BKN250 14/12 A2998 RMK AO2 SLP151 T01440122

More Conditions Fewer Conditions

10-Day Weather Forecast

Almanac

Astronomy

Aug. 20, 2014 Rise Set
Actual Time 6:05 AM EDT 7:44 PM EDT
Civil Twilight 5:35 AM EDT 8:14 PM EDT
Nautical Twilight 4:59 AM EDT 8:50 PM EDT
Astronomical Twilight 4:21 AM EDT 9:28 PM EDT
Moon 1:40 AM EDT 4:29 PM EDT
Length of Visible Light 14h 38m
Length of Day
13h 39m
Tomorrow will be 2m 35s shorter.
Waning Crescent, 22% of the Moon is Illuminated
Today
Waning Crescent
Aug 25
New
Sep 2
First Quarter
Sep 8
Full
Sep 15
Last Quarter

Today's Extremes

State Highs State Lows

Community

WunderPhotos

Upload Photos

1,745,605 photos uploaded!

Nearby

Air Quality

  Air Quality AQ Index Pollutant
Yesterday Good
OZONE
Yesterday Good
PM10
Current Good
PM2.5
Current Good
OZONE
Wednesday Moderate
OZONE
Wednesday Good
PM2.5

Snow Depth

Station Depth Elevation
No new snow has been reported.

Earthquake Activity

City Distance Mag. Time & Date
Deep River Center, Connecticut 51 miles 2.7 3:09 AM EDT
2014-08-14
Minimum magnitude displayed is 2.5.

Coastal Water Temperatures

Place Temperature
No Stations Reporting

Nearby Weather Stations